Time;durP1;ratioP1;P1;durP2;ratioP2;P2;SDS_P1;SDS_P2;PMS_P1;PMS_P2;Temp;Humidity;BMP_temperature;BMP_pressure;BME280_temperature;BME280_humidity;BME280_pressure;Samples;Min_cycle;Max_cycle;Signal;HPM_P1;HPM_P2
2023/09/08 00:02:10;;;;;;;16.80;4.27;;;;;;;20.25;82.04;100661.41;5010207;28;20299;-58
2023/09/08 00:04:41;;;;;;;10.20;4.60;;;;;;;20.28;80.43;100655.09;5021662;28;20295;-60
2023/09/08 00:07:20;;;;;;;13.00;4.17;;;;;;;20.28;80.45;100660.38;5013802;28;20279;-60
2023/09/08 00:10:10;;;;;;;10.27;3.73;;;;;;;20.32;80.18;100651.31;5014585;28;20626;-60
2023/09/08 00:12:46;;;;;;;8.20;4.20;;;;;;;20.39;79.47;100648.31;5024577;28;20754;-61
2023/09/08 00:15:18;;;;;;;8.73;3.50;;;;;;;20.45;78.26;100649.78;5014432;28;20288;-60
2023/09/08 00:17:50;;;;;;;10.10;3.97;;;;;;;20.53;78.68;100652.88;5024998;28;20283;-60
2023/09/08 00:20:22;;;;;;;14.77;4.10;;;;;;;20.65;78.47;100649.63;5015081;28;20283;-59
2023/09/08 00:22:58;;;;;;;11.40;3.97;;;;;;;20.78;78.29;100644.53;5024691;28;20291;-60
2023/09/08 00:25:31;;;;;;;10.00;3.90;;;;;;;20.98;78.02;100643.47;5014213;28;20857;-59
2023/09/08 00:28:06;;;;;;;12.67;3.73;;;;;;;20.84;76.25;100617.66;4997979;28;20284;-59
2023/09/08 00:30:38;;;;;;;9.83;4.10;;;;;;;21.01;74.32;100635.31;5004940;28;20296;-60
2023/09/08 00:33:09;;;;;;;11.00;4.00;;;;;;;21.02;74.24;100629.09;4994898;28;20307;-59
2023/09/08 00:35:41;;;;;;;10.90;3.87;;;;;;;21.05;73.76;100626.25;5010611;28;20632;-59
2023/09/08 00:38:13;;;;;;;12.03;3.67;;;;;;;21.07;74.50;100613.75;5014820;28;20749;-59
2023/09/08 00:40:46;;;;;;;14.33;3.70;;;;;;;21.14;74.55;100608.09;5009996;28;20851;-59
2023/09/08 00:43:19;;;;;;;12.43;4.20;;;;;;;21.14;73.87;100600.97;4994956;28;20287;-61
2023/09/08 00:45:52;;;;;;;7.43;3.30;;;;;;;21.20;74.32;100602.47;5004912;28;20612;-58
2023/09/08 00:48:26;;;;;;;6.33;3.60;;;;;;;21.25;74.01;100606.56;4994490;28;20375;-59
2023/09/08 00:51:01;;;;;;;11.57;3.93;;;;;;;21.29;73.75;100601.94;5021134;28;20366;-60
2023/09/08 00:53:33;;;;;;;11.70;3.97;;;;;;;21.37;73.62;100605.03;5014835;28;20867;-62
2023/09/08 00:56:07;;;;;;;12.03;3.63;;;;;;;21.47;74.07;100606.25;5013233;28;20293;-60
2023/09/08 00:58:41;;;;;;;13.50;3.93;;;;;;;21.51;73.60;100599.81;5023500;28;20275;-60
2023/09/08 01:01:17;;;;;;;8.37;3.83;;;;;;;21.56;72.97;100593.38;5003669;28;20355;-61
2023/09/08 01:03:49;;;;;;;8.47;3.77;;;;;;;21.60;73.18;100584.31;5002544;28;20281;-60
2023/09/08 01:06:23;;;;;;;10.70;3.97;;;;;;;21.71;74.12;100576.53;4994551;28;20387;-59
2023/09/08 01:08:58;;;;;;;11.33;3.60;;;;;;;21.70;73.05;100585.47;5004568;28;20299;-62
2023/09/08 01:11:30;;;;;;;8.60;3.50;;;;;;;21.76;73.15;100574.47;4993537;28;20293;-59
2023/09/08 01:14:04;;;;;;;9.93;3.70;;;;;;;21.89;72.52;100579.94;4994528;28;20292;-62
2023/09/08 01:16:37;;;;;;;8.60;3.57;;;;;;;21.96;72.09;100582.13;5008035;28;20298;-62
2023/09/08 01:19:13;;;;;;;7.73;3.27;;;;;;;22.01;71.04;100570.38;5013022;28;20291;-60
2023/09/08 01:22:14;;;;;;;6.37;3.73;;;;;;;22.08;72.71;100564.59;5023726;28;20684;-61
2023/09/08 01:25:17;;;;;;;8.00;3.50;;;;;;;22.10;70.67;100567.19;5005679;28;20742;-62
2023/09/08 01:27:52;;;;;;;6.40;3.47;;;;;;;22.10;71.59;100561.88;5005866;28;20272;-59
2023/09/08 01:30:27;;;;;;;10.90;3.70;;;;;;;22.11;71.81;100532.47;4992892;28;20104;-59
2023/09/08 01:33:01;;;;;;;7.83;3.67;;;;;;;22.21;71.17;100542.63;5015261;28;20334;-60
2023/09/08 01:35:34;;;;;;;8.03;3.80;;;;;;;22.28;70.98;100534.16;5022170;28;20298;-60
2023/09/08 01:38:06;;;;;;;7.10;3.30;;;;;;;22.32;70.01;100535.69;5012773;28;20299;-61
2023/09/08 01:40:43;;;;;;;9.00;3.60;;;;;;;22.44;71.00;100527.88;5017686;28;20280;-62
2023/09/08 01:43:16;;;;;;;6.23;3.67;;;;;;;22.38;69.05;100534.47;4993302;28;20379;-61
2023/09/08 01:45:48;;;;;;;12.57;3.77;;;;;;;22.42;69.12;100521.84;5003600;28;20697;-63
2023/09/08 01:48:24;;;;;;;8.97;3.60;;;;;;;22.54;69.66;100513.06;5012979;28;20859;-62
2023/09/08 01:50:57;;;;;;;10.40;3.97;;;;;;;22.66;69.87;100522.09;5022171;28;20140;-62
2023/09/08 01:53:30;;;;;;;6.77;3.20;;;;;;;22.77;70.32;100520.47;4992839;28;20146;-60
2023/09/08 01:56:06;;;;;;;6.97;3.13;;;;;;;22.86;68.81;100502.19;4993236;28;20057;-58
2023/09/08 01:58:38;;;;;;;18.60;4.47;;;;;;;22.85;68.60;100496.00;5007974;28;20380;-61
2023/09/08 02:01:11;;;;;;;6.67;3.53;;;;;;;22.95;68.35;100501.59;5012489;28;20045;-59
2023/09/08 02:03:43;;;;;;;10.70;4.17;;;;;;;22.95;67.72;100496.28;5022962;28;20361;-60
2023/09/08 02:06:16;;;;;;;9.23;3.80;;;;;;;22.92;66.93;100496.47;5012386;28;20311;-61
2023/09/08 02:08:48;;;;;;;7.60;3.20;;;;;;;22.91;66.81;100494.75;5022915;28;20044;-61
2023/09/08 02:11:22;;;;;;;9.80;4.07;;;;;;;22.93;66.69;100492.84;5013987;28;20057;-61
2023/09/08 02:13:57;;;;;;;9.60;3.37;;;;;;;22.99;66.46;100495.16;5022701;28;20447;-62
2023/09/08 02:16:30;;;;;;;6.40;3.60;;;;;;;22.98;65.26;100490.78;4992051;28;20436;-61
2023/09/08 02:19:02;;;;;;;10.60;4.17;;;;;;;23.01;66.34;100486.13;4993460;28;20144;-61
2023/09/08 02:21:36;;;;;;;8.13;3.60;;;;;;;23.10;67.09;100479.31;5022614;28;20044;-61
2023/09/08 02:24:09;;;;;;;9.53;3.40;;;;;;;23.24;66.87;100470.44;5012335;28;20059;-63
2023/09/08 02:26:44;;;;;;;9.27;3.50;;;;;;;23.37;66.53;100473.13;5022926;28;20128;-62
2023/09/08 02:29:16;;;;;;;9.53;3.97;;;;;;;23.40;67.29;100459.59;5012104;28;20561;-61
2023/09/08 02:31:49;;;;;;;8.77;4.07;;;;;;;23.40;67.63;100459.59;5022662;28;20033;-60
2023/09/08 02:34:21;;;;;;;10.83;4.30;;;;;;;23.44;68.00;100456.63;5012419;28;20429;-61
2023/09/08 02:36:54;;;;;;;7.30;3.80;;;;;;;23.43;66.31;100460.22;5022175;28;20823;-59
2023/09/08 02:39:26;;;;;;;10.87;3.90;;;;;;;23.48;67.60;100451.91;5011492;28;20061;-61
2023/09/08 02:42:01;;;;;;;10.50;4.20;;;;;;;23.57;66.80;100445.97;5022105;28;20053;-60
2023/09/08 02:44:36;;;;;;;7.77;3.37;;;;;;;23.39;66.66;100425.91;5011208;28;20072;-61
2023/09/08 02:47:09;;;;;;;7.27;3.30;;;;;;;23.55;65.45;100445.22;5009437;28;20091;-62
2023/09/08 02:49:43;;;;;;;7.30;3.77;;;;;;;23.57;66.10;100437.97;5002093;28;20056;-62
2023/09/08 02:52:16;;;;;;;7.47;3.63;;;;;;;23.67;66.92;100435.53;4994171;28;20148;-61
2023/09/08 02:54:51;;;;;;;9.97;3.97;;;;;;;23.68;67.00;100438.09;5021277;28;20106;-60
2023/09/08 02:57:27;;;;;;;11.63;3.80;;;;;;;23.71;66.38;100431.69;5011589;28;20033;-61
2023/09/08 03:00:00;;;;;;;10.70;3.83;;;;;;;23.73;67.54;100434.28;5018785;28;20546;-61
2023/09/08 03:02:35;;;;;;;9.83;4.00;;;;;;;23.68;67.00;100422.06;5021157;28;20104;-59
2023/09/08 03:05:09;;;;;;;9.03;4.00;;;;;;;23.60;66.97;100435.09;5011619;28;20049;-62
2023/09/08 03:07:42;;;;;;;11.73;4.37;;;;;;;23.51;66.76;100427.72;5021570;28;20044;-61
2023/09/08 03:10:21;;;;;;;14.53;4.00;;;;;;;23.48;66.98;100414.59;5011503;28;20064;-59
2023/09/08 03:12:57;;;;;;;12.47;4.83;;;;;;;23.56;67.96;100422.91;5021809;28;20053;-60
2023/09/08 03:15:31;;;;;;;12.00;3.90;;;;;;;23.61;66.88;100426.16;4991064;28;20072;-62
2023/09/08 03:18:03;;;;;;;10.63;4.27;;;;;;;23.57;65.51;100413.13;5008743;28;20052;-61
2023/09/08 03:20:40;;;;;;;9.90;3.90;;;;;;;23.54;66.50;100419.53;5021884;28;20045;-63
2023/09/08 03:23:13;;;;;;;9.13;3.77;;;;;;;23.59;67.07;100422.72;5012391;28;20053;-60
2023/09/08 03:25:47;;;;;;;8.27;4.07;;;;;;;23.56;66.76;100406.91;5021280;28;20356;-62
2023/09/08 03:28:24;;;;;;;8.97;4.43;;;;;;;23.59;67.06;100406.72;5011532;28;20516;-61
2023/09/08 03:30:58;;;;;;;8.70;4.50;;;;;;;23.61;66.74;100399.47;5021045;28;20069;-62
2023/09/08 03:33:34;;;;;;;12.10;4.07;;;;;;;23.60;65.77;100397.75;5010660;28;20430;-61
2023/09/08 03:36:12;;;;;;;7.83;3.83;;;;;;;23.56;65.45;100382.91;5009542;28;20059;-64
2023/09/08 03:38:47;;;;;;;8.53;3.90;;;;;;;23.54;64.55;100371.50;5020291;28;20052;-60
2023/09/08 03:41:20;;;;;;;10.67;3.47;;;;;;;23.62;64.76;100377.16;5009748;28;20435;-60
2023/09/08 03:43:58;;;;;;;9.20;3.87;;;;;;;23.67;64.20;100377.69;5020421;28;20048;-60
2023/09/08 03:46:31;;;;;;;11.27;3.97;;;;;;;23.72;64.71;100373.88;5001036;28;20944;-63
2023/09/08 03:49:08;;;;;;;9.40;3.90;;;;;;;23.68;62.90;100363.38;5012144;28;20052;-61
2023/09/08 03:51:42;;;;;;;7.83;3.77;;;;;;;23.66;63.53;100360.00;5020991;28;20092;-62
2023/09/08 03:54:16;;;;;;;13.50;3.70;;;;;;;23.78;63.68;100368.13;5011246;28;20049;-63
2023/09/08 03:56:53;;;;;;;9.40;3.77;;;;;;;23.78;61.44;100362.78;5031111;28;20055;-61
2023/09/08 03:59:29;;;;;;;10.47;4.20;;;;;;;23.69;62.30;100351.78;5016963;28;20163;-62
2023/09/08 04:02:03;;;;;;;10.30;4.30;;;;;;;23.68;61.14;100363.38;5011813;28;20471;-62
2023/09/08 04:04:37;;;;;;;14.50;4.20;;;;;;;23.59;60.54;100358.72;5021308;28;20122;-62
2023/09/08 04:07:09;;;;;;;10.70;4.47;;;;;;;23.51;60.49;100355.69;5010829;28;20060;-61
2023/09/08 04:09:42;;;;;;;12.53;4.13;;;;;;;23.47;61.43;100348.88;5020816;28;20134;-62
2023/09/08 04:12:14;;;;;;;11.43;4.03;;;;;;;23.46;61.10;100358.72;5010277;28;20616;-63
2023/09/08 04:14:49;;;;;;;13.87;4.40;;;;;;;23.43;61.22;100358.06;5020702;28;20295;-63
2023/09/08 04:17:22;;;;;;;12.07;4.20;;;;;;;23.43;61.81;100342.03;5012056;28;20126;-62
2023/09/08 04:19:56;;;;;;;10.13;3.63;;;;;;;23.43;61.24;100342.03;5019894;28;20044;-60
2023/09/08 04:22:29;;;;;;;7.83;4.20;;;;;;;23.46;60.64;100341.84;4993551;28;20038;-62
2023/09/08 04:25:02;;;;;;;9.90;4.27;;;;;;;23.43;60.67;100336.72;4995125;28;20044;-62
2023/09/08 04:27:36;;;;;;;7.13;3.70;;;;;;;23.40;60.66;100331.59;5002072;28;20143;-63
2023/09/08 04:30:11;;;;;;;12.03;3.60;;;;;;;23.39;60.45;100330.75;4994084;28;20050;-64
2023/09/08 04:32:47;;;;;;;10.00;4.27;;;;;;;23.22;60.10;100296.41;5014594;28;20054;-63
2023/09/08 04:35:19;;;;;;;9.93;3.73;;;;;;;23.33;59.43;100324.97;5013295;28;20050;-63
2023/09/08 04:37:52;;;;;;;8.43;3.50;;;;;;;23.24;59.72;100327.31;5000837;28;20572;-60
2023/09/08 04:40:25;;;;;;;13.80;3.67;;;;;;;22.74;60.70;100233.00;4991429;28;20053;-61
2023/09/08 04:42:58;;;;;;;10.30;3.67;;;;;;;23.15;60.38;100322.63;5000932;28;20069;-61
2023/09/08 04:45:33;;;;;;;9.60;3.77;;;;;;;23.20;61.55;100320.47;4991074;28;20057;-62
2023/09/08 04:48:07;;;;;;;16.23;3.37;;;;;;;23.02;60.06;100276.44;4990185;28;20488;-60
2023/09/08 04:50:39;;;;;;;9.80;3.73;;;;;;;23.19;59.79;100317.94;5007319;28;20102;-63
2023/09/08 04:53:13;;;;;;;6.37;3.43;;;;;;;23.13;59.59;100313.84;5014302;28;20054;-63
2023/09/08 04:55:47;;;;;;;12.30;4.63;;;;;;;23.15;60.24;100319.94;5024113;28;20147;-62
2023/09/08 04:58:21;;;;;;;14.90;4.57;;;;;;;23.15;60.23;100311.94;5014556;28;20053;-63
2023/09/08 05:00:56;;;;;;;11.00;4.00;;;;;;;23.11;59.52;100314.91;5023633;28;20075;-61
2023/09/08 05:03:30;;;;;;;15.50;4.20;;;;;;;23.01;58.92;100309.34;5013343;28;20060;-63
2023/09/08 05:06:03;;;;;;;8.27;3.97;;;;;;;22.93;59.08;100322.31;5014337;28;20490;-63
2023/09/08 05:08:36;;;;;;;10.33;3.40;;;;;;;22.85;58.68;100319.31;5024694;28;20099;-63
2023/09/08 05:11:09;;;;;;;14.90;3.93;;;;;;;22.77;58.69;100328.66;5013812;28;20472;-60
2023/09/08 05:13:43;;;;;;;14.67;3.60;;;;;;;22.66;58.15;100331.19;5024027;28;20464;-61
2023/09/08 05:16:25;;;;;;;15.10;3.63;;;;;;;22.63;57.97;100319.88;5013783;28;20068;-60
2023/09/08 05:18:59;;;;;;;11.20;3.83;;;;;;;22.60;57.26;100312.94;5023159;28;20037;-64
2023/09/08 05:21:33;;;;;;;23.40;4.70;;;;;;;22.57;57.74;100314.00;5001519;28;20056;-62
2023/09/08 05:24:07;;;;;;;10.20;3.83;;;;;;;22.54;57.27;100316.00;5002924;28;20083;-65
2023/09/08 05:26:41;;;;;;;10.37;3.53;;;;;;;22.51;57.62;100316.22;5023396;28;20444;-60
2023/09/08 05:29:14;;;;;;;9.10;3.60;;;;;;;22.52;57.37;100307.28;5014287;28;20226;-63
2023/09/08 05:31:49;;;;;;;8.63;3.53;;;;;;;22.50;57.61;100304.72;5023174;28;20036;-64
2023/09/08 05:34:21;;;;;;;9.03;4.23;;;;;;;22.45;57.60;100311.28;5014698;28;20088;-62
2023/09/08 05:36:54;;;;;;;13.13;4.60;;;;;;;22.36;57.13;100302.94;5023427;28;20684;-62
2023/09/08 05:39:27;;;;;;;12.87;3.50;;;;;;;22.33;58.21;100303.13;5013252;28;20057;-63
2023/09/08 05:41:59;;;;;;;10.87;3.60;;;;;;;22.34;58.23;100294.22;5022585;28;20044;-61
2023/09/08 05:44:36;;;;;;;9.60;3.40;;;;;;;22.32;58.90;100300.59;5013382;28;20168;-61
2023/09/08 05:47:11;;;;;;;11.00;4.10;;;;;;;22.31;59.08;100294.38;5013179;28;20056;-62
2023/09/08 05:49:48;;;;;;;9.17;3.93;;;;;;;22.28;59.06;100299.91;5022980;28;20052;-63
2023/09/08 05:52:21;;;;;;;12.77;3.40;;;;;;;22.21;59.86;100293.28;5013061;28;20057;-63
2023/09/08 05:54:56;;;;;;;10.40;4.10;;;;;;;22.18;59.50;100282.81;5023350;28;20191;-61
2023/09/08 05:57:37;;;;;;;13.35;3.55;;;;;;;22.11;60.50;100286.81;5012361;28;20057;-61
2023/09/08 06:00:12;;;;;;;6.87;3.87;;;;;;;22.07;60.92;100290.63;5013118;28;20367;-64
2023/09/08 06:02:47;;;;;;;10.93;3.60;;;;;;;22.05;61.33;100288.06;5021271;28;20298;-63
2023/09/08 06:05:20;;;;;;;15.33;4.73;;;;;;;22.14;61.40;100292.81;5013605;28;20062;-63
2023/09/08 06:07:52;;;;;;;13.23;4.07;;;;;;;22.13;61.34;100292.88;5022750;28;20053;-60
2023/09/08 06:10:36;;;;;;;19.53;4.00;;;;;;;22.12;61.72;100283.22;4997711;28;20452;-63
2023/09/08 06:13:11;;;;;;;13.13;3.50;;;;;;;22.06;60.87;100275.59;5013025;28;20053;-62
2023/09/08 06:15:43;;;;;;;11.37;3.70;;;;;;;22.03;60.88;100278.47;5022603;28;20283;-60
2023/09/08 06:18:18;;;;;;;10.23;4.00;;;;;;;21.98;60.61;100271.63;5011894;28;20064;-62
2023/09/08 06:20:50;;;;;;;11.37;4.17;;;;;;;21.93;60.68;100279.03;5022753;28;20049;-63
2023/09/08 06:23:23;;;;;;;9.37;3.40;;;;;;;21.90;61.51;100271.25;5013616;28;20291;-59
2023/09/08 06:26:00;;;;;;;9.57;3.87;;;;;;;21.90;61.37;100281.91;5022855;28;20093;-60
2023/09/08 06:28:33;;;;;;;10.60;3.67;;;;;;;21.91;61.66;100294.25;5001848;28;20037;-63
2023/09/08 06:31:07;;;;;;;6.80;3.20;;;;;;;21.93;61.29;100292.34;5011884;28;20864;-64
2023/09/08 06:33:41;;;;;;;9.90;4.03;;;;;;;21.93;61.15;100294.16;5002914;28;20281;-61
2023/09/08 06:36:14;;;;;;;9.13;3.97;;;;;;;21.93;61.68;100294.16;4992180;28;20288;-62
2023/09/08 06:38:46;;;;;;;7.93;3.57;;;;;;;21.91;61.43;100291.59;5017210;28;20255;-61
2023/09/08 06:41:19;;;;;;;7.70;4.07;;;;;;;21.89;61.00;100284.66;5002447;28;21164;-61
2023/09/08 06:43:51;;;;;;;8.33;3.87;;;;;;;21.87;61.33;100279.44;5003093;28;20284;-64
2023/09/08 06:46:23;;;;;;;9.03;3.67;;;;;;;21.86;61.36;100277.72;4993168;28;20291;-61
2023/09/08 06:48:57;;;;;;;11.30;3.77;;;;;;;21.82;61.95;100272.72;5001983;28;20047;-62
2023/09/08 06:51:32;;;;;;;9.00;3.80;;;;;;;21.82;61.69;100276.22;4992059;28;20053;-63
2023/09/08 06:54:07;;;;;;;10.40;3.73;;;;;;;21.82;61.51;100265.59;5009133;28;20780;-62
2023/09/08 06:56:39;;;;;;;8.47;3.70;;;;;;;21.84;60.80;100258.38;5022542;28;20296;-62
2023/09/08 06:59:12;;;;;;;7.70;3.43;;;;;;;21.84;61.65;100263.69;5011883;28;20500;-63
2023/09/08 07:01:46;;;;;;;7.67;3.17;;;;;;;21.81;61.31;100252.38;5020758;28;20298;-62
2023/09/08 07:04:21;;;;;;;9.50;3.50;;;;;;;21.77;61.30;100259.72;5011487;28;20283;-61
2023/09/08 07:06:56;;;;;;;10.43;3.80;;;;;;;21.76;61.38;100265.97;5021219;28;20615;-63
2023/09/08 07:09:28;;;;;;;11.60;4.00;;;;;;;21.75;61.71;100266.91;5004007;28;20287;-62
2023/09/08 07:12:01;;;;;;;9.53;3.53;;;;;;;21.70;61.58;100277.84;5016237;28;20391;-64
2023/09/08 07:14:34;;;;;;;8.80;3.50;;;;;;;21.70;62.02;100277.84;5021338;28;20280;-63
2023/09/08 07:17:08;;;;;;;8.63;3.77;;;;;;;21.66;62.20;100276.31;5011485;28;20286;-62
2023/09/08 07:19:43;;;;;;;9.90;3.50;;;;;;;21.64;61.71;100272.91;5021118;28;20044;-62
2023/09/08 07:22:16;;;;;;;9.30;3.97;;;;;;;21.60;61.82;100260.75;5011419;28;20295;-62
2023/09/08 07:24:49;;;;;;;9.83;3.90;;;;;;;21.56;61.85;100258.38;5021284;28;20306;-62
2023/09/08 07:27:21;;;;;;;10.00;4.10;;;;;;;21.50;62.41;100264.94;4992389;28;20788;-64
2023/09/08 07:29:53;;;;;;;10.07;3.60;;;;;;;21.47;62.59;100260.66;5001402;28;20288;-64
2023/09/08 07:32:27;;;;;;;8.97;4.07;;;;;;;21.39;62.75;100257.63;5012015;28;20490;-61
2023/09/08 07:35:02;;;;;;;11.17;4.07;;;;;;;21.36;62.85;100252.44;5021200;28;20508;-64
2023/09/08 07:37:35;;;;;;;7.60;3.57;;;;;;;21.40;62.94;100253.16;4989324;28;20296;-65
2023/09/08 07:40:09;;;;;;;10.70;3.90;;;;;;;21.36;62.76;100249.78;4990456;28;20300;-63
2023/09/08 07:42:43;;;;;;;13.03;3.97;;;;;;;21.32;63.26;100257.13;5030586;28;20366;-65
2023/09/08 07:45:17;;;;;;;7.70;3.30;;;;;;;21.24;63.32;100242.56;5020782;28;20275;-62
2023/09/08 07:47:50;;;;;;;6.57;4.07;;;;;;;21.19;63.58;100255.28;5021196;28;20386;-63
2023/09/08 07:50:27;;;;;;;6.70;4.00;;;;;;;21.15;63.38;100254.63;5010725;28;20298;-64
2023/09/08 07:53:00;;;;;;;7.57;3.70;;;;;;;21.11;63.24;100259.25;5020930;28;20323;-62
2023/09/08 07:55:34;;;;;;;7.70;3.87;;;;;;;21.07;63.94;100257.75;5010668;28;20395;-61
2023/09/08 07:58:06;;;;;;;10.37;3.63;;;;;;;21.03;64.48;100256.22;5010624;28;20284;-64
2023/09/08 08:00:38;;;;;;;9.80;3.30;;;;;;;20.98;64.53;100252.97;5019788;28;20300;-62
2023/09/08 08:03:10;;;;;;;11.23;3.90;;;;;;;20.92;64.57;100258.66;5010402;28;20283;-62
2023/09/08 08:05:43;;;;;;;8.00;4.00;;;;;;;20.84;64.50;100255.59;5021226;28;20280;-63
2023/09/08 08:08:16;;;;;;;8.87;3.20;;;;;;;20.76;64.63;100263.16;5011285;28;20295;-63
2023/09/08 08:10:48;;;;;;;9.63;4.00;;;;;;;20.70;64.73;100255.56;5021324;28;20315;-64
2023/09/08 08:13:21;;;;;;;10.23;3.97;;;;;;;20.65;65.66;100251.38;5010865;28;20311;-63
2023/09/08 08:15:54;;;;;;;11.17;3.60;;;;;;;20.16;65.79;100174.56;5020806;28;20309;-64
2023/09/08 08:18:28;;;;;;;10.50;4.20;;;;;;;20.52;66.38;100242.38;4990671;28;20284;-63
2023/09/08 08:21:03;;;;;;;7.00;3.37;;;;;;;20.44;66.59;100232.22;5013426;28;20386;-64
2023/09/08 08:23:38;;;;;;;9.47;3.60;;;;;;;20.36;66.75;100239.75;5021143;28;20303;-63
2023/09/08 08:26:10;;;;;;;9.23;4.00;;;;;;;20.30;67.10;100236.63;5009273;28;20364;-63
2023/09/08 08:28:41;;;;;;;8.70;3.80;;;;;;;20.22;67.25;100232.59;5005070;28;20766;-63
2023/09/08 08:31:16;;;;;;;7.23;3.70;;;;;;;20.13;67.46;100238.41;4994105;28;20296;-63
2023/09/08 08:33:49;;;;;;;7.83;3.90;;;;;;;20.04;67.63;100237.16;5018983;28;20283;-62
2023/09/08 08:36:23;;;;;;;6.57;3.53;;;;;;;19.98;67.85;100233.97;5014907;28;20951;-63
2023/09/08 08:38:56;;;;;;;13.20;4.00;;;;;;;19.87;68.50;100231.03;5024633;28;20284;-64
2023/09/08 08:41:29;;;;;;;12.37;3.37;;;;;;;19.77;68.89;100231.56;5014399;28;20287;-63
2023/09/08 08:44:02;;;;;;;6.37;3.60;;;;;;;19.67;68.98;100225.06;5017042;28;20299;-63
2023/09/08 08:46:35;;;;;;;7.63;3.90;;;;;;;19.54;69.15;100213.38;5023478;28;20379;-62
2023/09/08 08:49:11;;;;;;;7.00;3.73;;;;;;;19.55;69.19;100225.72;5015332;28;20335;-64
2023/09/08 08:51:47;;;;;;;7.87;3.80;;;;;;;19.43;69.52;100221.06;5034103;28;20287;-60
2023/09/08 08:54:19;;;;;;;7.53;3.80;;;;;;;19.38;69.86;100224.81;5027792;28;20271;-65
2023/09/08 08:56:53;;;;;;;7.23;3.93;;;;;;;19.28;70.46;100223.59;5045574;28;20374;-66
2023/09/08 08:59:26;;;;;;;5.83;3.70;;;;;;;19.20;71.05;100220.50;5055399;28;20639;-61
2023/09/08 09:01:59;;;;;;;7.10;3.67;;;;;;;19.10;71.02;100220.13;5055558;28;20353;-63
2023/09/08 09:04:34;;;;;;;7.67;3.80;;;;;;;19.08;71.44;100227.28;5054531;28;20268;-65
2023/09/08 09:07:10;;;;;;;6.23;3.33;;;;;;;19.01;71.54;100225.03;5028172;28;20290;-63
2023/09/08 09:09:43;;;;;;;7.30;3.60;;;;;;;19.03;71.44;100228.47;5023959;28;20283;-63
2023/09/08 09:12:15;;;;;;;8.60;3.70;;;;;;;18.95;71.75;100219.13;5013423;28;20271;-61
2023/09/08 09:14:54;;;;;;;6.40;3.50;;;;;;;18.73;71.83;100215.84;5020794;28;20307;-64
2023/09/08 09:17:30;;;;;;;9.27;3.60;;;;;;;18.92;72.12;100237.81;5000037;28;20362;-63
2023/09/08 09:20:17;;;;;;;8.63;3.80;;;;;;;18.88;72.37;100230.97;4994041;28;20307;-63
2023/09/08 09:22:52;;;;;;;6.87;3.53;;;;;;;18.82;72.81;100226.00;5023093;28;20326;-63
2023/09/08 09:25:33;;;;;;;7.07;3.73;;;;;;;18.68;73.18;100218.72;4993146;28;20375;-64
2023/09/08 09:28:05;;;;;;;7.07;3.70;;;;;;;18.73;72.97;100226.44;4993007;28;20280;-62
2023/09/08 09:30:51;;;;;;;5.20;3.30;;;;;;;18.70;73.73;100223.94;5003694;28;20391;-63
2023/09/08 09:33:42;;;;;;;11.30;4.03;;;;;;;18.62;73.53;100218.16;5014033;28;20318;-63
2023/09/08 09:36:40;;;;;;;9.13;3.10;;;;;;;18.65;73.50;100234.75;4998106;28;20354;-64
2023/09/08 09:39:14;;;;;;;7.77;3.17;;;;;;;18.65;73.82;100231.25;4994195;28;20658;-63
2023/09/08 09:41:45;;;;;;;7.00;3.00;;;;;;;18.62;73.49;100244.63;5018684;28;20655;-61
2023/09/08 09:44:17;;;;;;;9.00;4.13;;;;;;;18.38;73.92;100194.66;5014212;28;20338;-65
2023/09/08 09:47:09;;;;;;;7.60;3.27;;;;;;;18.52;73.60;100229.22;5023730;28;20337;-63
2023/09/08 09:49:47;;;;;;;10.70;3.60;;;;;;;18.52;73.83;100218.63;5023232;28;21717;-62
2023/09/08 09:52:23;;;;;;;10.83;4.13;;;;;;;18.36;74.08;100206.25;5013507;28;20294;-60
2023/09/08 09:54:56;;;;;;;7.83;3.50;;;;;;;18.41;74.52;100212.16;5022747;28;20334;-65
2023/09/08 09:57:30;;;;;;;9.23;3.67;;;;;;;18.14;74.18;100158.84;5013911;28;20288;-64
2023/09/08 10:00:05;;;;;;;8.40;3.60;;;;;;;18.31;74.34;100193.25;5036013;28;20341;-65
2023/09/08 10:02:39;;;;;;;5.47;3.00;;;;;;;18.14;74.24;100156.19;5056477;28;20331;-64
2023/09/08 10:05:14;;;;;;;8.33;3.07;;;;;;;18.30;73.85;100196.84;5044169;28;20737;-64
2023/09/08 10:07:53;;;;;;;8.00;3.10;;;;;;;18.31;73.44;100201.19;5027045;28;20758;-61
2023/09/08 10:10:41;;;;;;;6.47;3.20;;;;;;;18.30;72.97;100199.47;4995953;28;20766;-61
2023/09/08 10:16:31;;;;;;;7.50;3.03;;;;;;;18.25;72.91;100206.78;4989652;28;20280;-64
2023/09/08 10:19:13;;;;;;;8.07;3.20;;;;;;;18.20;73.07;100207.00;5019027;28;20312;-63
2023/09/08 10:25:33;;;;;;;8.47;3.80;;;;;;;18.15;73.77;100202.88;5006466;28;20291;-62
2023/09/08 10:28:07;;;;;;;6.70;3.30;;;;;;;18.17;73.83;100203.63;5009111;28;20306;-61
2023/09/08 10:30:39;;;;;;;7.73;2.97;;;;;;;18.20;73.85;100199.06;5022550;28;20349;-60
2023/09/08 10:33:12;;;;;;;9.30;3.27;;;;;;;18.15;75.01;100192.31;5012756;28;20275;-64
2023/09/08 10:35:45;;;;;;;8.17;3.00;;;;;;;18.09;76.37;100188.16;5022563;28;20311;-64
2023/09/08 10:38:27;;;;;;;11.13;3.83;;;;;;;18.08;78.40;100187.28;5012747;28;20275;-62
2023/09/08 10:41:31;;;;;;;9.90;3.20;;;;;;;18.04;79.97;100191.00;5022326;28;20369;-61
2023/09/08 10:44:10;;;;;;;7.93;3.13;;;;;;;17.98;80.74;100180.75;5011930;28;20296;-63
2023/09/08 10:46:44;;;;;;;6.00;3.00;;;;;;;17.95;80.86;100183.53;5022174;28;20279;-62
2023/09/08 10:49:16;;;;;;;8.17;3.17;;;;;;;17.45;80.95;100124.22;5011039;28;20044;-62
2023/09/08 10:52:10;;;;;;;6.83;3.43;;;;;;;17.79;80.92;100174.59;4961661;28;20885;-63
2023/09/08 10:54:47;;;;;;;7.70;2.90;;;;;;;17.54;80.73;100138.75;4979767;28;20273;-61
2023/09/08 10:57:20;;;;;;;5.93;2.97;;;;;;;17.75;80.33;100173.03;4961633;28;20275;-64
2023/09/08 10:59:56;;;;;;;5.40;2.80;;;;;;;17.77;80.51;100187.00;4979406;28;20312;-62
2023/09/08 11:02:39;;;;;;;7.27;3.00;;;;;;;17.68;81.05;100183.88;4969030;28;20325;-62
2023/09/08 11:05:13;;;;;;;8.97;3.33;;;;;;;17.58;82.00;100177.31;4969633;28;20301;-62
2023/09/08 11:07:45;;;;;;;10.83;3.27;;;;;;;17.52;82.55;100167.03;4978586;28;20292;-61
2023/09/08 11:10:17;;;;;;;6.33;3.20;;;;;;;17.45;83.42;100162.97;4968654;28;20289;-60
2023/09/08 11:12:51;;;;;;;7.90;3.20;;;;;;;17.40;84.14;100159.69;4972432;28;20277;-63
2023/09/08 11:15:24;;;;;;;10.83;3.17;;;;;;;17.38;84.66;100154.47;4967885;28;20762;-64
2023/09/08 11:17:56;;;;;;;8.53;3.27;;;;;;;17.37;85.31;100151.88;4979293;28;20406;-60
2023/09/08 11:20:31;;;;;;;9.03;3.30;;;;;;;17.33;85.95;100150.34;4969137;28;20287;-62
2023/09/08 11:23:03;;;;;;;8.30;3.33;;;;;;;17.28;86.34;100147.06;4961204;28;20281;-62
2023/09/08 11:25:36;;;;;;;12.10;3.50;;;;;;;17.33;86.80;100147.69;4979053;28;20363;-59
2023/09/08 11:28:08;;;;;;;12.90;3.97;;;;;;;17.04;87.35;100100.56;4961342;28;20349;-63
2023/09/08 11:30:42;;;;;;;7.53;2.80;;;;;;;17.17;87.97;100114.09;5021357;28;20295;-63
2023/09/08 11:33:17;;;;;;;9.43;3.53;;;;;;;16.80;88.86;100057.69;5011575;28;20279;-62
2023/09/08 11:35:49;;;;;;;8.93;3.33;;;;;;;17.25;89.66;100138.34;5020986;28;20280;-63
2023/09/08 11:38:21;;;;;;;5.90;3.43;;;;;;;17.24;90.32;100133.97;5012083;28;20291;-62
2023/09/08 11:40:52;;;;;;;10.70;3.87;;;;;;;17.27;91.18;100134.75;5021164;28;20323;-62
2023/09/08 11:43:24;;;;;;;7.77;3.43;;;;;;;17.29;92.25;100127.63;4997326;28;20284;-62
2023/09/08 11:45:59;;;;;;;8.43;2.90;;;;;;;17.31;93.00;100131.06;5001047;28;20392;-62
2023/09/08 11:48:30;;;;;;;6.90;3.03;;;;;;;17.12;93.92;100089.66;4990753;28;20296;-60
2023/09/08 11:51:02;;;;;;;10.77;3.93;;;;;;;17.35;94.43;100116.78;4999759;28;20291;-62
2023/09/08 11:53:34;;;;;;;7.63;2.77;;;;;;;17.38;94.93;100121.94;5021211;28;20346;-60
2023/09/08 11:56:06;;;;;;;6.67;3.00;;;;;;;17.43;95.54;100114.66;5010678;28;20318;-62
2023/09/08 11:58:38;;;;;;;7.40;2.80;;;;;;;17.44;96.22;100126.91;5020973;28;20272;-62
2023/09/08 12:01:12;;;;;;;10.63;2.93;;;;;;;17.47;96.54;100110.91;5013541;28;20358;-62
2023/09/08 12:03:54;;;;;;;7.77;3.20;;;;;;;17.35;97.06;100100.94;5024793;28;20295;-64